Latest Weather Observations for Coonabarabran Airport

IDN60801

Issued at 7:22 am EST Tuesday 7 July 2020 (issued every 10 minutes, with the page automatically refreshed every 10 minutes)

About weather observations | Map of weather stations | Latest weather observations for NSW | Other Formats
Station Details ID: 064017 Name: COONABARABRAN AIRPORT AWS Lat: -31.33 Lon: 149.27 Height: 645.0 m
Data from the previous 72 hours. | See also: Recent months at Coonabarabran Airport
Date/Time
EST
Temp
°C
App
Temp
°C
Dew
Point
°C
Rel
Hum
%
Delta-T
°C
Wind Press
QNH
hPa
Press
MSL
hPa
Rain since
9am
mm
Dir  Spd
km/h
Gust
km/h
Spd
kts
Gust
kts
07/07:00am 7.0 4.1 4.8 86 1.0 SSW 9 15 5 8 1027.6 1027.7 0.0
07/06:30am 6.8 3.9 4.6 86 1.0 SSW 9 11 5 6 1027.6 1027.7 0.0
07/06:00am 6.6 3.7 4.4 86 1.0 SW 9 11 5 6 1027.1 1027.3 0.0
07/05:30am 6.3 3.0 4.3 87 0.9 SW 11 11 6 6 1026.9 1027.1 0.0
07/05:00am 6.3 3.0 4.5 88 0.8 SW 11 11 6 6 1026.6 1026.7 0.0
07/04:30am 6.4 3.1 4.6 88 0.8 SW 11 13 6 7 1026.5 1026.6 0.0
07/04:00am 6.2 2.9 4.5 89 0.8 SW 11 13 6 7 1026.6 1026.7 0.0
07/03:30am 6.1 2.7 4.1 87 0.9 SW 11 13 6 7 1026.9 1027.1 0.0
07/03:00am 6.3 2.9 4.1 86 1.0 SW 11 13 6 7 1026.9 1027.1 0.0
07/02:30am 6.4 3.0 4.1 85 1.0 SSW 11 13 6 7 1027.0 1027.2 0.0
07/02:00am 6.8 3.1 4.3 84 1.1 SSW 13 15 7 8 1027.0 1027.2 0.0
07/01:30am 6.2 2.8 3.9 85 1.0 SW 11 13 6 7 1027.2 1027.4 0.0
07/01:00am 6.3 2.9 4.0 85 1.0 SSW 11 13 6 7 1027.6 1027.7 0.0
07/12:30am 6.2 2.7 3.7 84 1.1 SSW 11 13 6 7 1027.7 1027.8 0.0
07/12:00am 6.6 2.8 3.9 83 1.2 SSW 13 15 7 8 1028.0 1028.1 0.0
 
Date/Time
EST
Temp
°C
App
Temp
°C
Dew
Point
°C
Rel
Hum
%
Delta-T
°C
Wind Press
QNH
hPa
Press
MSL
hPa
Rain since
9am
mm
Dir  Spd
km/h
Gust
km/h
Spd
kts
Gust
kts
06/11:30pm 6.5 3.1 3.8 83 1.2 SSW 11 13 6 7 1028.2 1028.4 0.0
06/11:00pm 7.1 3.8 4.4 83 1.2 SSW 11 13 6 7 1028.4 1028.6 0.0
06/10:30pm 6.9 3.5 4.2 83 1.2 SSW 11 15 6 8 1028.4 1028.6 0.0
06/10:00pm 7.3 3.5 4.1 80 1.4 SSW 13 17 7 9 1028.3 1028.5 0.0
06/09:30pm 7.3 3.9 3.9 79 1.5 SSW 11 15 6 8 1028.1 1028.3 0.0
06/09:00pm 7.6 4.3 4.4 80 1.4 SW 11 15 6 8 1028.0 1028.1 0.0
06/08:30pm 7.4 4.4 4.2 80 1.4 SW 9 15 5 8 1028.0 1028.1 0.0
06/08:00pm 7.8 4.4 4.0 77 1.7 SW 11 15 6 8 1027.9 1028.0 0.0
06/07:30pm 8.3 4.9 3.9 74 2.0 SW 11 15 6 8 1027.8 1027.9 0.0
06/07:00pm 8.6 5.5 3.8 72 2.1 SW 9 13 5 7 1027.8 1027.9 0.0
06/06:30pm 8.9 5.9 4.1 72 2.2 SSW 9 13 5 7 1027.6 1027.7 0.0
06/06:00pm 9.1 5.7 3.9 70 2.3 S 11 13 6 7 1027.1 1027.3 0.0
06/05:30pm 9.6 6.1 3.4 65 2.8 SSE 11 13 6 7 1026.9 1027.1 0.0
06/05:00pm 10.6 6.7 3.6 62 3.2 SSE 13 15 7 8 1026.6 1026.7 0.0
06/04:30pm 12.5 9.0 3.7 55 4.1 SSE 11 15 6 8 1026.4 1026.5 0.0
06/04:00pm 13.8 10.5 2.7 47 5.1 S 9 13 5 7 1026.3 1026.4 0.0
06/03:30pm 14.0 10.7 2.3 45 5.3 SSE 9 13 5 7 1026.2 1026.3 0.0
06/03:00pm 14.4 10.9 1.3 41 5.8 SW 9 13 5 7 1026.0 1026.1 0.0
06/02:30pm 13.9 11.2 2.8 47 5.1 SE 6 15 3 8 1026.0 1026.1 0.0
06/02:00pm 14.0 11.3 3.8 50 4.8 SSE 7 15 4 8 1026.1 1026.2 0.0
06/01:30pm 13.8 11.2 3.0 48 5.0 S 6 15 3 8 1026.4 1026.5 0.0
06/01:00pm 13.5 10.3 3.3 50 4.7 NNE 9 13 5 7 1026.5 1026.6 0.0
06/12:30pm 12.7 9.6 3.4 53 4.3 ENE 9 13 5 7 1026.9 1027.1 0.0
06/12:00pm 12.3 9.1 3.3 54 4.1 E 9 15 5 8 1027.3 1027.5 0.0
06/11:30am 11.5 8.9 4.3 61 3.4 SSE 7 15 4 8 1027.8 1027.9 0.0
06/11:00am 10.8 7.7 3.8 62 3.2 SSE 9 15 5 8 1028.0 1028.1 0.0
06/10:30am 9.4 6.5 4.6 72 2.2 SSE 9 11 5 6 1028.3 1028.5 0.0
06/10:00am 8.4 5.5 4.4 76 1.8 S 9 15 5 8 1028.3 1028.5 0.0
06/09:30am 7.2 3.9 4.7 84 1.1 S 11 15 6 8 1028.2 1028.4 0.0
06/09:00am 6.3 3.0 4.3 87 0.9 SSW 11 13 6 7 1028.0 1028.1 0.0
06/08:30am 5.8 2.5 4.3 90 0.7 SSW 11 13 6 7 1027.7 1027.8 0.0
06/08:00am 4.9 1.5 3.9 93 0.4 SW 11 13 6 7 1027.3 1027.5 0.0
06/07:30am 3.7 0.1 2.8 94 0.4 SW 11 13 6 7 1027.1 1027.3 0.0
06/07:00am 3.2 -0.5 2.6 96 0.2 SW 11 13 6 7 1026.6 1026.7 0.0
06/06:30am 3.0 -0.7 2.4 96 0.2 SW 11 13 6 7 1026.1 1026.2 0.0
06/06:00am 3.0 -0.7 2.3 95 0.3 SSW 11 13 6 7 1026.0 1026.1 0.0
06/05:30am 3.1 -0.6 2.2 94 0.4 SSW 11 13 6 7 1025.8 1025.9 0.0
06/05:00am 3.2 -0.9 2.2 93 0.4 SSW 13 15 7 8 1025.4 1025.6 0.0
06/04:30am 3.4 -0.3 2.2 92 0.5 SSW 11 15 6 8 1025.2 1025.3 0.0
06/04:00am 3.5 -0.6 2.0 90 0.6 SSW 13 15 7 8 1025.3 1025.4 0.0
06/03:30am 3.9 -0.2 2.3 89 0.7 SSW 13 15 7 8 1025.4 1025.6 0.0
06/03:00am 4.3 -0.1 2.5 88 0.8 SW 15 19 8 10 1025.5 1025.7 0.0
06/02:30am 4.4 0.3 2.4 87 0.8 SSW 13 15 7 8 1025.5 1025.7 0.0
06/02:00am 4.7 0.7 2.7 87 0.8 SSW 13 17 7 9 1025.6 1025.8 0.0
06/01:30am 5.2 1.2 3.1 86 0.9 SSW 13 17 7 9 1025.9 1026.0 0.0
06/01:00am 5.6 2.1 3.3 85 1.0 SSW 11 17 6 9 1026.0 1026.1 0.0
06/12:30am 6.0 1.7 3.5 84 1.1 SSW 15 22 8 12 1026.0 1026.1 0.0
06/12:00am 6.7 2.2 4.0 83 1.2 SSW 17 24 9 13 1026.1 1026.2 0.0
 
Date/Time
EST
Temp
°C
App
Temp
°C
Dew
Point
°C
Rel
Hum
%
Delta-T
°C
Wind Press
QNH
hPa
Press
MSL
hPa
Rain since
9am
mm
Dir  Spd
km/h
Gust
km/h
Spd
kts
Gust
kts
05/11:30pm 6.8 1.9 4.1 83 1.2 SSW 19 24 10 13 1025.9 1026.0 0.0
05/11:00pm 6.8 1.7 3.9 82 1.3 SSW 20 28 11 15 1025.6 1025.8 0.0
05/10:30pm 7.0 2.0 3.6 79 1.5 SSW 19 24 10 13 1025.6 1025.8 0.0
05/10:00pm 6.6 1.5 3.2 79 1.5 SSW 19 26 10 14 1025.4 1025.6 0.0
05/09:30pm 6.7 1.6 3.1 78 1.6 SSW 19 24 10 13 1025.4 1025.6 0.0
05/09:00pm 6.8 1.5 3.2 78 1.6 SSW 20 28 11 15 1025.3 1025.4 0.0
05/08:30pm 6.8 1.5 3.2 78 1.6 SSW 20 30 11 16 1025.1 1025.2 0.0
05/08:00pm 7.4 1.4 3.5 76 1.7 SSW 24 33 13 18 1024.9 1025.0 0.0
05/07:30pm 6.9 1.6 3.2 77 1.6 SSW 20 28 11 15 1024.8 1024.9 0.0
05/07:00pm 6.9 1.8 3.2 77 1.6 SSW 19 24 10 13 1024.8 1024.9 0.0
05/06:30pm 6.9 1.8 3.2 77 1.6 SSW 19 28 10 15 1024.6 1024.7 0.0
05/06:00pm 6.9 2.2 3.2 77 1.6 SSW 17 24 9 13 1024.4 1024.5 0.0
05/05:30pm 7.7 2.4 3.2 73 2.0 SSW 20 28 11 15 1024.0 1024.1 0.0
05/05:00pm 7.9 3.4 4.1 77 1.7 SSW 17 22 9 12 1023.9 1024.0 0.0
05/04:30pm 8.3 3.2 4.3 76 1.8 SSW 20 28 11 15 1023.8 1023.9 0.0
05/04:00pm 8.5 3.7 4.5 76 1.8 SSW 19 24 10 13 1023.8 1023.9 0.0
05/03:30pm 9.0 4.9 4.6 74 2.0 SSW 15 22 8 12 1023.9 1024.0 0.0
05/03:00pm 8.8 4.4 4.6 75 1.9 SW 17 24 9 13 1024.0 1024.1 0.0
05/02:30pm 9.1 4.2 4.3 72 2.2 SW 19 26 10 14 1024.0 1024.1 0.0
05/02:00pm 9.4 4.4 4.6 72 2.2 SW 20 30 11 16 1024.0 1024.1 0.0
05/01:30pm 9.6 4.9 5.2 74 2.1 SW 19 26 10 14 1024.0 1024.1 0.0
05/01:00pm 9.6 4.8 4.8 72 2.2 SW 19 26 10 14 1024.2 1024.3 0.0
05/12:30pm 9.9 4.2 5.1 72 2.3 SW 24 32 13 17 1024.4 1024.5 0.0
05/12:00pm 9.9 4.9 4.5 69 2.5 SW 20 32 11 17 1024.7 1024.8 0.0
05/11:52am 9.4 4.6 4.4 71 2.3 SSW 19 28 10 15 1024.8 1024.9 0.0
05/11:30am 8.9 3.9 4.7 75 1.9 S 20 26 11 14 1025.1 1025.2 0.0
05/11:00am 8.4 3.1 5.2 80 1.5 S 22 30 12 16 1025.4 1025.6 0.0
05/10:30am 7.5 1.7 4.6 82 1.3 SSW 24 32 13 17 1025.6 1025.8 0.0
05/10:00am 7.3 1.5 4.3 81 1.3 SSW 24 35 13 19 1025.6 1025.8 0.0
05/09:30am 7.0 1.9 4.3 83 1.2 S 20 30 11 16 1025.4 1025.6 0.0
05/09:00am 6.7 1.3 4.4 85 1.0 SSW 22 32 12 17 1025.3 1025.4 0.0
05/08:56am 6.6 1.2 4.3 85 1.0 SSW 22 32 12 17 1025.3 1025.4 0.0
05/08:30am 6.3 1.8 4.0 85 1.0 SSW 17 24 9 13 1025.1 1025.2 0.0
05/08:01am 5.7 1.2 4.0 89 0.8 SSW 17 20 9 11 1025.0 1025.1 0.0
05/08:00am 5.6 1.0 3.9 89 0.7 SSW 17 20 9 11 1025.0 1025.1 0.0
05/07:30am 5.4 0.5 3.9 90 0.7 SSW 19 28 10 15 1025.0 1025.1 0.0
05/07:00am 5.3 -0.3 3.6 89 0.7 SSW 22 32 12 17 1024.8 1024.9 0.0
05/06:30am 5.2 0.0 3.7 90 0.7 SSW 20 30 11 16 1024.5 1024.6 0.0
05/06:00am 5.2 -0.4 3.5 89 0.7 SSW 22 32 12 17 1023.8 1023.9 0.0
05/05:30am 5.1 -0.9 3.6 90 0.7 SSW 24 33 13 18 1023.5 1023.6 0.0
05/05:00am 5.0 -1.0 3.5 90 0.6 SSW 24 39 13 21 1023.4 1023.5 0.0
05/04:48am 5.1 -1.3 3.4 89 0.7 SSW 26 39 14 21 1023.4 1023.5 0.0
05/04:35am 5.1 -0.9 3.4 89 0.7 SSW 24 33 13 18 1023.3 1023.4 0.0
05/04:30am 5.0 -0.6 3.3 89 0.7 SSW 22 32 12 17 1023.4 1023.5 0.0
05/04:00am 5.1 -1.2 3.8 91 0.6 SSW 26 35 14 19 1023.5 1023.6 0.0
05/03:30am 5.0 -1.3 3.7 91 0.6 SSW 26 35 14 19 1023.7 1023.8 0.0
05/03:00am 5.5 -1.3 3.3 86 0.9 SSW 28 41 15 22 1023.6 1023.7 0.0
05/02:46am 5.5 -0.5 3.2 85 1.0 SSW 24 39 13 21 1023.6 1023.7 0.0
05/02:30am 5.4 -0.7 2.9 84 1.1 SSW 24 35 13 19 1023.7 1023.8 0.0
05/02:00am 5.0 -1.1 2.7 85 1.0 SSW 24 37 13 20 1023.9 1024.0 0.0
05/01:30am 4.5 -2.0 2.4 86 0.9 SSW 26 35 14 19 1024.0 1024.1 0.0
05/01:00am 4.2 -2.0 2.1 86 0.9 SSW 24 32 13 17 1024.0 1024.1 0.0
05/12:30am 4.6 -0.9 2.1 84 1.0 SSW 20 32 11 17 1024.2 1024.3 0.0
05/12:00am 4.8 -1.8 2.2 83 1.1 SSW 26 39 14 21 1024.5 1024.6 0.0
 
Date/Time
EST
Temp
°C
App
Temp
°C
Dew
Point
°C
Rel
Hum
%
Delta-T
°C
Wind Press
QNH
hPa
Press
MSL
hPa
Rain since
9am
mm
Dir  Spd
km/h
Gust
km/h
Spd
kts
Gust
kts
04/11:30pm 4.3 -2.0 1.8 84 1.0 SSW 24 35 13 19 1024.6 1024.7 0.0
04/11:00pm 3.9 -2.4 1.6 85 0.9 SSW 24 35 13 19 1024.8 1024.9 0.0
04/10:30pm 3.4 -2.1 1.6 88 0.7 SSW 20 30 11 16 1024.8 1024.9 0.0
04/10:00pm 3.6 -2.3 1.8 88 0.7 SSW 22 30 12 16 1024.8 1024.9 0.0
04/09:30pm 3.3 -1.7 1.3 87 0.8 SSW 17 26 9 14 1024.9 1025.0 0.0
04/09:00pm 3.5 -1.5 1.4 86 0.8 SSW 17 24 9 13 1024.9 1025.0 0.0
04/08:30pm 3.6 -1.0 1.3 85 0.9 SSW 15 22 8 12 1024.6 1024.7 0.0
04/08:00pm 3.7 -1.3 1.4 85 0.9 SW 17 24 9 13 1024.5 1024.6 0.0
04/07:30pm 3.8 -0.9 1.2 83 1.1 SSW 15 26 8 14 1024.4 1024.5 0.0
04/07:00pm 4.1 -1.9 1.1 81 1.2 SW 22 32 12 17 1024.2 1024.3 0.0
04/06:30pm 4.3 -1.3 1.3 81 1.2 SW 20 30 11 16 1023.9 1024.0 0.0
04/06:00pm 4.6 -0.4 1.1 78 1.4 SW 17 24 9 13 1023.8 1023.9 0.0
04/05:30pm 5.2 0.1 1.0 74 1.7 SW 17 24 9 13 1023.6 1023.7 0.0
04/05:00pm 6.0 0.5 0.6 68 2.2 SW 19 28 10 15 1023.5 1023.6 0.0
04/04:30pm 6.8 0.7 0.5 64 2.6 SW 22 32 12 17 1023.3 1023.4 0.0
04/04:00pm 7.3 0.8 0.5 62 2.8 SW 24 35 13 19 1022.8 1022.9 0.0
04/03:30pm 7.6 2.1 0.8 62 2.8 SSW 19 26 10 14 1022.7 1022.7 0.0
04/03:00pm 7.6 1.6 1.0 63 2.7 SSW 22 30 12 16 1022.7 1022.7 0.0
04/02:30pm 8.3 2.7 1.5 62 2.9 SW 20 30 11 16 1022.3 1022.4 0.0
04/02:00pm 7.3 1.4 1.6 67 2.4 SW 22 32 12 17 1022.6 1022.6 0.0
04/01:30pm 7.2 1.9 1.9 69 2.3 SW 19 26 10 14 1022.6 1022.6 0.0
04/01:14pm 7.0 1.2 2.1 71 2.1 SW 22 33 12 18 1022.8 1022.9 0.0
04/01:00pm 6.7 -0.4 1.6 70 2.1 SW 28 35 15 19 1022.7 1022.7 0.0
04/12:30pm 6.8 0.6 2.3 73 1.9 SSW 24 37 13 20 1022.9 1023.0 0.0
04/12:00pm 6.0 -0.2 2.1 76 1.6 SW 24 39 13 21 1023.2 1023.3 0.0
04/11:30am 6.2 -0.3 2.5 77 1.6 SW 26 35 14 19 1023.4 1023.5 0.0
04/11:00am 5.2 -1.0 2.0 80 1.3 SW 24 35 13 19 1023.4 1023.5 0.0
04/10:30am 4.4 -2.6 1.8 83 1.1 SSW 28 37 15 20 1023.3 1023.4 0.0
04/10:00am 3.9 -2.8 1.6 85 0.9 SSW 26 41 14 22 1023.1 1023.2 0.0
04/09:30am 3.6 -3.8 1.8 88 0.7 SW 30 48 16 26 1022.9 1023.0 0.0
04/09:26am 3.5 -3.5 1.7 88 0.7 SW 28 48 15 26 1022.8 1022.9 0.0
04/09:00am 3.4 -3.6 1.9 90 0.6 SW 28 39 15 21 1022.6 1022.6 0.0
04/08:30am 3.6 -3.5 1.3 85 0.9 SW 28 39 15 21 1022.1 1022.2 0.0
04/08:00am 3.8 -2.9 1.2 83 1.0 SW 26 32 14 17 1021.7 1021.8 0.0
04/07:30am 3.3 -3.1 0.7 83 1.0 SW 24 32 13 17 1021.8 1021.9 0.0

Other formats

Comma delimited format used in spreadsheet applications
http://www.bom.gov.au/fwo/IDN60801/IDN60801.95728.axf

JavaScript Object Notation format (JSON) in row-major order
http://www.bom.gov.au/fwo/IDN60801/IDN60801.95728.json

Data quality

Most of these data are generated automatically and are frequently updated. Quality checks on data are not normally performed. It is possible for incorrect values to appear. Refer to information at About Latest Weather Observations and please check the disclaimer before using these data.